Time;durP1;ratioP1;P1;durP2;ratioP2;P2;SDS_P1;SDS_P2;PMS_P1;PMS_P2;Temp;Humidity;BMP_temperature;BMP_pressure;BME280_temperature;BME280_humidity;BME280_pressure;Samples;Min_cycle;Max_cycle;Signal;HPM_P1;HPM_P2
2022/10/13 00:00:59;;;;;;;0.50;0.40;;;11.30;99.90;;;;;;5034446;28;20726;-78
2022/10/13 00:03:26;;;;;;;0.80;0.50;;;11.30;99.90;;;;;;5034879;28;20202;-78
2022/10/13 00:05:53;;;;;;;1.10;1.00;;;11.30;99.90;;;;;;5033969;28;20237;-78
2022/10/13 00:08:21;;;;;;;0.50;0.40;;;11.30;99.90;;;;;;5034530;28;20669;-77
2022/10/13 00:10:50;;;;;;;0.98;0.75;;;11.30;99.90;;;;;;5035008;28;20212;-77
2022/10/13 00:13:18;;;;;;;0.50;0.50;;;11.20;99.90;;;;;;5034485;28;20234;-77
2022/10/13 00:15:48;;;;;;;2.15;1.02;;;11.20;99.90;;;;;;5034384;28;20205;-78
2022/10/13 00:18:15;;;;;;;0.50;0.40;;;11.20;99.90;;;;;;5033971;28;20205;-77
2022/10/13 00:20:43;;;;;;;0.50;0.40;;;11.20;99.90;;;;;;5034262;28;20207;-78
2022/10/13 00:23:10;;;;;;;0.73;0.73;;;11.20;99.90;;;;;;5034375;28;20200;-77
2022/10/13 00:25:41;;;;;;;0.50;0.40;;;11.20;99.90;;;;;;5033488;28;20195;-77
2022/10/13 00:28:08;;;;;;;0.50;0.40;;;11.20;99.90;;;;;;5034145;28;20218;-78
2022/10/13 00:30:37;;;;;;;1.15;1.05;;;11.20;99.90;;;;;;5033659;28;20198;-78
2022/10/13 00:33:07;;;;;;;0.50;0.40;;;11.10;99.90;;;;;;5034417;28;20227;-77
2022/10/13 00:35:34;;;;;;;4.85;1.08;;;11.10;99.90;;;;;;5033698;28;20444;-78
2022/10/13 00:38:01;;;;;;;1.25;1.15;;;11.00;99.90;;;;;;5034371;28;20649;-77
2022/10/13 00:40:28;;;;;;;0.50;0.50;;;11.00;99.90;;;;;;5033363;28;20689;-77
2022/10/13 00:42:54;;;;;;;0.50;0.40;;;10.90;99.90;;;;;;5034021;28;20271;-77
2022/10/13 00:45:23;;;;;;;0.55;0.52;;;10.90;99.90;;;;;;5033151;28;20198;-77
2022/10/13 00:47:53;;;;;;;0.50;0.50;;;11.00;99.90;;;;;;5033857;28;20215;-77
2022/10/13 00:50:26;;;;;;;0.50;0.40;;;11.00;99.90;;;;;;5032962;28;20196;-78
2022/10/13 00:52:55;;;;;;;1.50;0.73;;;11.00;99.90;;;;;;5033557;28;20179;-77
2022/10/13 00:55:25;;;;;;;0.50;0.40;;;11.00;99.90;;;;;;5033247;28;20199;-77
2022/10/13 00:57:54;;;;;;;1.48;1.38;;;11.10;99.90;;;;;;5033480;28;20851;-77
2022/10/13 01:00:22;;;;;;;1.50;1.40;;;11.10;99.90;;;;;;5033349;28;20197;-77
2022/10/13 01:02:49;;;;;;;0.50;0.40;;;11.10;99.90;;;;;;5033518;28;20195;-78
2022/10/13 01:05:18;;;;;;;0.50;0.40;;;11.10;99.90;;;;;;5032881;28;20209;-78
2022/10/13 01:07:48;;;;;;;0.73;0.70;;;11.10;99.90;;;;;;5033550;28;20454;-78
2022/10/13 01:10:23;;;;;;;0.90;0.70;;;11.20;99.90;;;;;;5033263;28;20250;-77
2022/10/13 01:12:59;;;;;;;0.50;0.40;;;11.10;99.90;;;;;;5033608;28;20195;-77
2022/10/13 01:15:31;;;;;;;2.08;2.00;;;11.10;99.90;;;;;;5033186;28;20179;-77
2022/10/13 01:18:04;;;;;;;0.65;0.65;;;11.10;99.90;;;;;;5032926;28;20215;-79
2022/10/13 01:21:04;;;;;;;0.60;0.60;;;11.20;99.90;;;;;;5033305;28;20672;-77
2022/10/13 01:23:52;;;;;;;0.80;0.77;;;11.30;99.90;;;;;;5033695;28;20618;-77
2022/10/13 01:26:47;;;;;;;4.93;1.35;;;11.20;99.90;;;;;;5032957;28;20242;-77
2022/10/13 01:29:32;;;;;;;0.60;0.50;;;11.30;99.90;;;;;;5032581;28;20677;-77
2022/10/13 01:32:06;;;;;;;0.93;0.82;;;11.20;99.90;;;;;;5032745;28;20266;-77
2022/10/13 01:34:41;;;;;;;2.85;2.30;;;11.30;99.90;;;;;;5032588;28;20273;-77
2022/10/13 01:37:14;;;;;;;2.25;0.82;;;11.30;99.90;;;;;;5033036;28;20533;-76
2022/10/13 01:39:46;;;;;;;0.50;0.40;;;11.30;99.90;;;;;;5033401;28;20542;-78
2022/10/13 01:42:15;;;;;;;0.50;0.43;;;11.40;99.90;;;;;;5032859;28;20488;-77
2022/10/13 01:44:48;;;;;;;2.65;0.88;;;11.40;99.90;;;;;;5032796;28;20537;-78
2022/10/13 01:47:18;;;;;;;6.53;1.00;;;11.40;99.90;;;;;;5032892;28;20219;-77
2022/10/13 01:49:46;;;;;;;1.60;1.30;;;11.50;99.90;;;;;;5032843;28;20628;-77
2022/10/13 01:52:15;;;;;;;13.63;1.63;;;11.50;99.90;;;;;;5033098;28;20282;-77
2022/10/13 01:54:42;;;;;;;5.47;2.45;;;11.50;99.90;;;;;;5032725;28;21053;-77
2022/10/13 01:57:29;;;;;;;0.50;0.40;;;11.60;99.90;;;;;;5032674;28;20313;-77
2022/10/13 01:59:56;;;;;;;3.13;1.15;;;11.60;99.90;;;;;;5033105;28;20294;-77
2022/10/13 02:02:29;;;;;;;1.08;0.98;;;11.60;99.90;;;;;;5032479;28;20223;-77
2022/10/13 02:05:04;;;;;;;4.28;2.92;;;11.60;99.90;;;;;;5032127;28;20206;-77
2022/10/13 02:07:36;;;;;;;4.40;2.73;;;11.70;99.90;;;;;;5032905;28;20236;-77
2022/10/13 02:10:10;;;;;;;0.50;0.50;;;11.70;99.90;;;;;;5033019;28;20528;-77
2022/10/13 02:12:45;;;;;;;0.85;0.73;;;11.70;99.90;;;;;;5032135;28;20202;-77
2022/10/13 02:15:16;;;;;;;1.47;1.37;;;11.70;99.90;;;;;;5032277;28;20186;-77
2022/10/13 02:17:44;;;;;;;0.88;0.88;;;11.70;99.90;;;;;;5032645;28;20469;-77
2022/10/13 02:20:12;;;;;;;1.23;1.23;;;11.70;99.90;;;;;;5032032;28;20198;-77
2022/10/13 02:22:44;;;;;;;1.73;1.63;;;11.60;99.90;;;;;;5032728;28;20223;-77
2022/10/13 02:25:11;;;;;;;3.07;2.87;;;11.60;99.90;;;;;;5032317;28;20186;-77
2022/10/13 02:27:39;;;;;;;0.50;0.40;;;11.60;99.90;;;;;;5032391;28;20464;-77
2022/10/13 02:30:06;;;;;;;2.78;0.95;;;11.70;99.90;;;;;;5031773;28;20533;-77
2022/10/13 02:32:33;;;;;;;5.03;1.63;;;11.70;99.90;;;;;;5032633;28;20568;-77
2022/10/13 02:35:02;;;;;;;0.80;0.50;;;11.60;99.90;;;;;;5032147;28;20203;-77
2022/10/13 02:37:28;;;;;;;0.50;0.40;;;11.70;99.90;;;;;;5032230;28;21005;-77
2022/10/13 02:39:55;;;;;;;0.50;0.40;;;11.70;99.90;;;;;;5032644;28;20500;-77
2022/10/13 02:42:22;;;;;;;1.33;1.23;;;11.70;99.90;;;;;;5033220;28;20306;-77
2022/10/13 02:44:49;;;;;;;0.50;0.40;;;11.80;99.90;;;;;;5035591;28;20226;-76
2022/10/13 02:47:16;;;;;;;1.55;1.45;;;11.80;99.90;;;;;;5036031;28;20219;-77
2022/10/13 02:49:42;;;;;;;0.70;0.70;;;11.80;99.90;;;;;;5036072;28;20278;-77
2022/10/13 02:52:11;;;;;;;0.73;0.70;;;11.80;99.90;;;;;;5035817;28;20657;-77
2022/10/13 02:54:37;;;;;;;4.00;3.25;;;11.90;99.90;;;;;;5035991;28;20195;-77
2022/10/13 02:57:04;;;;;;;0.50;0.40;;;11.90;99.90;;;;;;5036123;28;20237;-77
2022/10/13 02:59:31;;;;;;;2.87;2.53;;;11.90;99.90;;;;;;5035655;28;20446;-77
2022/10/13 03:01:58;;;;;;;0.50;0.40;;;12.00;99.90;;;;;;5035585;28;20474;-77
2022/10/13 03:04:25;;;;;;;1.40;1.30;;;12.00;99.90;;;;;;5035303;28;20238;-77
2022/10/13 03:06:51;;;;;;;0.50;0.40;;;12.00;99.90;;;;;;5035398;28;20541;-77
2022/10/13 03:09:20;;;;;;;0.60;0.60;;;11.90;99.90;;;;;;5035548;28;20496;-77
2022/10/13 03:11:46;;;;;;;0.60;0.47;;;11.90;99.90;;;;;;5035248;28;20533;-77
2022/10/13 03:14:13;;;;;;;0.80;0.80;;;11.90;99.90;;;;;;5034685;28;20481;-77
2022/10/13 03:16:40;;;;;;;2.00;1.90;;;12.00;99.90;;;;;;5035506;28;20458;-77
2022/10/13 03:19:07;;;;;;;2.13;2.00;;;11.90;99.90;;;;;;5035378;28;20227;-77
2022/10/13 03:21:34;;;;;;;1.37;1.37;;;11.90;99.90;;;;;;5035455;28;20479;-77
2022/10/13 03:24:00;;;;;;;0.50;0.40;;;12.00;99.90;;;;;;5036041;28;20533;-79
2022/10/13 03:26:29;;;;;;;2.77;2.20;;;12.00;99.90;;;;;;5040812;28;20512;-78
2022/10/13 03:28:55;;;;;;;1.63;1.23;;;12.00;99.90;;;;;;5055893;28;20460;-78
2022/10/13 03:31:22;;;;;;;0.50;0.40;;;12.00;99.90;;;;;;5056109;28;20433;-78
2022/10/13 03:33:50;;;;;;;1.27;0.87;;;12.00;99.90;;;;;;5055932;28;20441;-79
2022/10/13 03:36:17;;;;;;;0.50;0.40;;;12.00;99.90;;;;;;5055992;28;20465;-78
2022/10/13 03:38:44;;;;;;;1.27;1.17;;;12.00;99.90;;;;;;5055814;28;20437;-78
2022/10/13 03:41:13;;;;;;;1.53;1.43;;;12.00;99.90;;;;;;5043111;28;20453;-78
2022/10/13 03:43:43;;;;;;;0.50;0.40;;;12.00;99.90;;;;;;5054088;28;20447;-77
2022/10/13 03:46:11;;;;;;;1.80;1.70;;;12.00;99.90;;;;;;5055257;28;20463;-77
2022/10/13 03:48:39;;;;;;;0.50;0.40;;;12.00;99.90;;;;;;5054981;28;20194;-78
2022/10/13 03:51:06;;;;;;;0.50;0.40;;;12.00;99.90;;;;;;5055053;28;20451;-77
2022/10/13 03:53:34;;;;;;;0.50;0.37;;;12.00;99.90;;;;;;5054130;28;20448;-78
2022/10/13 03:56:01;;;;;;;2.90;2.70;;;12.00;99.90;;;;;;5053188;28;20437;-78
2022/10/13 03:58:28;;;;;;;0.50;0.40;;;12.00;99.90;;;;;;5055067;28;20441;-78
2022/10/13 04:00:57;;;;;;;0.60;0.50;;;12.00;99.90;;;;;;5055203;28;20475;-77
2022/10/13 04:03:24;;;;;;;0.50;0.37;;;12.00;99.90;;;;;;5054486;28;20522;-77
2022/10/13 04:05:51;;;;;;;0.50;0.40;;;12.00;99.90;;;;;;5054109;28;20494;-77
2022/10/13 04:08:18;;;;;;;2.15;1.15;;;12.10;99.90;;;;;;5054231;28;20441;-78
2022/10/13 04:10:44;;;;;;;0.50;0.40;;;12.10;99.90;;;;;;5054940;28;20195;-77
2022/10/13 04:13:11;;;;;;;0.50;0.40;;;12.10;99.90;;;;;;5054120;28;20524;-78
2022/10/13 04:15:39;;;;;;;0.50;0.40;;;12.10;99.90;;;;;;5054291;28;20451;-77
2022/10/13 04:18:08;;;;;;;0.50;0.40;;;12.10;99.90;;;;;;5054777;28;20459;-78
2022/10/13 04:20:37;;;;;;;0.50;0.40;;;12.10;99.90;;;;;;5055463;28;21050;-78
2022/10/13 04:23:04;;;;;;;1.87;0.77;;;12.10;99.90;;;;;;5055099;28;20480;-78
2022/10/13 04:25:31;;;;;;;0.50;0.50;;;12.20;99.90;;;;;;5055006;28;20521;-78
2022/10/13 04:27:58;;;;;;;0.50;0.40;;;12.10;99.90;;;;;;5054808;28;20461;-76
2022/10/13 04:30:25;;;;;;;0.50;0.40;;;12.10;99.90;;;;;;5053626;28;20484;-77
2022/10/13 04:32:51;;;;;;;0.50;0.40;;;12.20;99.90;;;;;;5053671;28;20442;-77
2022/10/13 04:35:20;;;;;;;0.60;0.50;;;12.20;99.90;;;;;;5053452;28;20508;-77
2022/10/13 04:37:46;;;;;;;0.50;0.40;;;12.20;99.90;;;;;;5053404;28;20463;-77
2022/10/13 04:40:14;;;;;;;2.43;1.80;;;12.20;99.90;;;;;;5054426;28;21068;-77
2022/10/13 04:42:41;;;;;;;2.50;2.30;;;12.20;99.90;;;;;;5053962;28;20472;-77
2022/10/13 04:45:09;;;;;;;0.50;0.40;;;12.30;99.90;;;;;;5052972;28;20524;-77
2022/10/13 04:47:36;;;;;;;1.13;1.13;;;12.20;99.90;;;;;;5054910;28;20463;-79
2022/10/13 04:50:04;;;;;;;0.60;0.60;;;12.30;99.90;;;;;;5054779;28;20446;-80
2022/10/13 04:52:33;;;;;;;0.60;0.53;;;12.20;99.90;;;;;;5053150;28;20437;-77
2022/10/13 04:55:00;;;;;;;0.50;0.40;;;12.30;99.90;;;;;;5052657;28;20449;-77
2022/10/13 04:57:27;;;;;;;0.93;0.93;;;12.30;99.90;;;;;;5052961;28;20556;-77
2022/10/13 04:59:54;;;;;;;0.50;0.40;;;12.20;99.90;;;;;;5052522;28;20199;-77
2022/10/13 05:02:21;;;;;;;0.50;0.40;;;12.20;99.90;;;;;;5053081;28;20556;-77
2022/10/13 05:04:48;;;;;;;0.70;0.70;;;12.20;99.90;;;;;;5052274;28;20437;-77
2022/10/13 05:07:14;;;;;;;1.53;1.43;;;12.20;99.90;;;;;;5053339;28;20726;-77
2022/10/13 05:09:43;;;;;;;0.50;0.40;;;12.30;99.90;;;;;;5061019;28;20456;-77
2022/10/13 05:12:09;;;;;;;3.07;1.97;;;12.30;99.90;;;;;;5061413;28;20428;-77
2022/10/13 05:14:36;;;;;;;1.93;0.60;;;12.20;99.90;;;;;;5052714;28;20441;-77
2022/10/13 05:17:03;;;;;;;0.50;0.50;;;12.20;99.90;;;;;;5053139;28;20838;-77
2022/10/13 05:19:30;;;;;;;0.50;0.40;;;12.20;99.90;;;;;;5053175;28;20442;-77
2022/10/13 05:21:57;;;;;;;0.93;0.93;;;12.10;99.90;;;;;;5053329;28;21027;-77
2022/10/13 05:24:29;;;;;;;0.67;0.67;;;12.10;99.90;;;;;;5051862;28;20540;-77
2022/10/13 05:26:58;;;;;;;0.60;0.60;;;12.10;99.90;;;;;;5052522;28;20473;-77
2022/10/13 05:29:24;;;;;;;1.87;1.77;;;12.10;99.90;;;;;;5053042;28;20532;-77
2022/10/13 05:31:51;;;;;;;0.50;0.40;;;12.10;99.90;;;;;;5052692;28;20942;-77
2022/10/13 05:34:18;;;;;;;1.00;1.00;;;12.10;99.90;;;;;;5051545;28;20484;-76
2022/10/13 05:36:45;;;;;;;2.00;1.07;;;12.10;99.90;;;;;;5051763;28;20837;-77
2022/10/13 05:39:12;;;;;;;0.50;0.40;;;12.10;99.90;;;;;;5051891;28;20472;-76
2022/10/13 05:41:39;;;;;;;0.50;0.37;;;12.10;99.90;;;;;;5051481;28;20451;-76
2022/10/13 05:44:09;;;;;;;0.50;0.33;;;12.10;99.90;;;;;;5050971;28;20477;-76
2022/10/13 05:46:36;;;;;;;0.50;0.40;;;12.10;99.90;;;;;;5051119;28;20887;-76
2022/10/13 05:49:03;;;;;;;0.70;0.63;;;12.00;99.90;;;;;;5051418;28;20956;-76
2022/10/13 05:51:33;;;;;;;0.70;0.70;;;12.00;99.90;;;;;;5051298;28;20587;-76
2022/10/13 05:54:03;;;;;;;0.50;0.40;;;12.00;99.90;;;;;;5051239;28;20437;-76
2022/10/13 05:56:33;;;;;;;0.60;0.50;;;12.00;99.90;;;;;;5051013;28;20226;-76
2022/10/13 05:59:04;;;;;;;0.50;0.50;;;12.00;99.90;;;;;;5051230;28;20822;-76
2022/10/13 06:01:36;;;;;;;3.03;2.77;;;12.10;99.90;;;;;;5051261;28;20461;-76
2022/10/13 06:04:07;;;;;;;1.57;1.47;;;12.10;99.90;;;;;;5051090;28;20488;-76
2022/10/13 06:06:34;;;;;;;0.50;0.40;;;12.00;99.90;;;;;;5052054;28;20535;-77
2022/10/13 06:09:01;;;;;;;0.50;0.40;;;12.10;99.90;;;;;;5052088;28;20447;-77
2022/10/13 06:11:28;;;;;;;3.30;1.52;;;12.00;99.90;;;;;;5051703;28;20451;-77
2022/10/13 06:13:55;;;;;;;0.97;0.83;;;12.00;99.90;;;;;;5051546;28;20190;-76
2022/10/13 06:16:22;;;;;;;0.50;0.40;;;12.00;99.90;;;;;;5052268;28;20528;-77
2022/10/13 06:18:50;;;;;;;1.85;1.75;;;12.00;99.90;;;;;;5056503;28;20563;-77
2022/10/13 06:21:17;;;;;;;0.50;0.40;;;12.00;99.90;;;;;;5056041;28;20293;-76
2022/10/13 06:23:44;;;;;;;2.13;2.03;;;12.00;99.90;;;;;;5057420;28;20472;-77
2022/10/13 06:26:10;;;;;;;0.60;0.40;;;12.00;99.90;;;;;;5055910;28;20514;-76
2022/10/13 06:28:37;;;;;;;0.50;0.40;;;12.10;99.90;;;;;;5056645;28;20694;-76
2022/10/13 06:31:05;;;;;;;0.50;0.40;;;12.10;99.90;;;;;;5056410;28;20453;-77
2022/10/13 06:33:33;;;;;;;0.50;0.40;;;12.10;99.90;;;;;;5056051;28;20186;-77
2022/10/13 06:36:03;;;;;;;0.50;0.40;;;12.10;99.90;;;;;;5055706;28;20190;-77
2022/10/13 06:38:30;;;;;;;0.53;0.50;;;12.20;99.90;;;;;;5056688;28;20417;-77
2022/10/13 06:41:00;;;;;;;0.50;0.40;;;12.20;99.90;;;;;;5055858;28;20443;-77
2022/10/13 06:43:27;;;;;;;0.50;0.40;;;12.20;99.90;;;;;;5055839;28;20494;-77
2022/10/13 06:45:57;;;;;;;0.50;0.40;;;12.20;99.90;;;;;;5054940;28;20441;-76
2022/10/13 06:48:24;;;;;;;1.73;1.63;;;12.30;99.90;;;;;;5055444;28;20451;-76
2022/10/13 06:50:51;;;;;;;0.50;0.40;;;12.30;99.90;;;;;;5056040;28;20441;-77
2022/10/13 06:53:19;;;;;;;0.60;0.60;;;12.40;99.90;;;;;;5054869;28;20437;-77
2022/10/13 06:55:46;;;;;;;0.90;0.90;;;12.40;99.90;;;;;;5055373;28;20495;-77
2022/10/13 06:58:13;;;;;;;2.53;2.43;;;12.40;99.90;;;;;;5055337;28;20492;-77
2022/10/13 07:00:41;;;;;;;0.50;0.40;;;12.50;99.90;;;;;;5055869;28;20477;-77
2022/10/13 07:03:08;;;;;;;2.13;1.80;;;12.50;99.90;;;;;;5055731;28;20563;-76
2022/10/13 07:05:34;;;;;;;0.50;0.40;;;12.60;99.90;;;;;;5054677;28;20868;-76
2022/10/13 07:08:01;;;;;;;0.60;0.60;;;12.60;99.90;;;;;;5055900;28;20835;-76
2022/10/13 07:10:29;;;;;;;0.60;0.60;;;12.60;99.90;;;;;;5055183;28;20441;-77
2022/10/13 07:12:57;;;;;;;0.50;0.40;;;12.70;99.90;;;;;;5055028;28;20540;-76
2022/10/13 07:15:24;;;;;;;0.53;0.50;;;12.70;99.90;;;;;;5060552;28;20531;-77
2022/10/13 07:17:52;;;;;;;1.37;1.27;;;12.80;99.90;;;;;;5063878;28;20464;-77
2022/10/13 07:20:20;;;;;;;0.50;0.40;;;12.90;99.90;;;;;;5056095;28;20522;-77
2022/10/13 07:22:47;;;;;;;0.50;0.40;;;12.90;99.90;;;;;;5055259;28;20575;-78
2022/10/13 07:25:13;;;;;;;0.50;0.40;;;13.00;99.90;;;;;;5054582;28;20440;-77
2022/10/13 07:27:43;;;;;;;0.53;0.40;;;13.20;99.90;;;;;;5054195;28;20465;-77
2022/10/13 07:30:10;;;;;;;0.50;0.40;;;13.50;99.90;;;;;;5054132;28;20445;-77
2022/10/13 07:32:40;;;;;;;2.70;2.50;;;13.60;99.90;;;;;;5054717;28;20988;-76
2022/10/13 07:35:08;;;;;;;0.50;0.37;;;13.70;99.90;;;;;;5054480;28;20849;-77
2022/10/13 07:37:35;;;;;;;1.57;0.77;;;13.80;99.90;;;;;;5054380;28;21061;-77
2022/10/13 07:40:02;;;;;;;0.50;0.40;;;13.80;99.90;;;;;;5054945;28;20544;-77
2022/10/13 07:42:29;;;;;;;0.60;0.60;;;13.90;99.90;;;;;;5054192;28;20441;-77
2022/10/13 07:44:57;;;;;;;0.50;0.40;;;14.00;99.90;;;;;;5053873;28;20441;-76
2022/10/13 07:47:24;;;;;;;0.50;0.40;;;14.10;99.90;;;;;;5053914;28;20464;-76
2022/10/13 07:49:51;;;;;;;0.50;0.40;;;14.20;99.90;;;;;;5053254;28;20452;-76
2022/10/13 07:52:18;;;;;;;0.60;0.60;;;14.40;99.90;;;;;;5053202;28;20476;-77
2022/10/13 07:54:44;;;;;;;3.80;1.10;;;14.50;99.90;;;;;;5053662;28;20529;-76
2022/10/13 07:57:11;;;;;;;0.50;0.30;;;14.60;99.90;;;;;;5053643;28;20982;-77
2022/10/13 07:59:38;;;;;;;0.50;0.33;;;14.70;99.90;;;;;;5053714;28;20968;-76
2022/10/13 08:02:06;;;;;;;0.50;0.40;;;14.70;99.90;;;;;;5052991;28;20942;-76
2022/10/13 08:04:34;;;;;;;0.50;0.50;;;14.70;99.90;;;;;;5052719;28;21089;-76
2022/10/13 08:07:02;;;;;;;0.50;0.40;;;14.80;99.90;;;;;;5052726;28;20882;-76
2022/10/13 08:09:29;;;;;;;0.90;0.90;;;14.70;99.90;;;;;;5053024;28;20433;-76
2022/10/13 08:11:56;;;;;;;0.70;0.70;;;14.80;99.90;;;;;;5052755;28;20445;-76
2022/10/13 08:14:23;;;;;;;0.60;0.60;;;14.80;99.90;;;;;;5053330;28;20465;-76
2022/10/13 08:16:49;;;;;;;0.53;0.53;;;14.90;99.90;;;;;;5052883;28;21303;-77
2022/10/13 08:19:20;;;;;;;0.70;0.70;;;14.90;99.90;;;;;;5053283;28;20448;-76
2022/10/13 08:21:48;;;;;;;0.97;0.90;;;14.90;99.90;;;;;;5052853;28;20745;-76
2022/10/13 08:24:17;;;;;;;1.90;0.90;;;14.90;99.90;;;;;;5052624;28;20568;-76
2022/10/13 08:26:45;;;;;;;0.50;0.40;;;14.90;99.90;;;;;;5052604;28;20465;-76
2022/10/13 08:29:13;;;;;;;1.67;1.50;;;14.80;99.90;;;;;;5052525;28;21163;-76
2022/10/13 08:31:40;;;;;;;2.10;1.17;;;14.80;99.90;;;;;;5053137;28;20811;-76
2022/10/13 08:34:06;;;;;;;0.50;0.40;;;14.70;99.90;;;;;;5052762;28;20429;-76
2022/10/13 08:36:35;;;;;;;0.50;0.40;;;14.70;99.90;;;;;;5053027;28;20540;-76
2022/10/13 08:39:03;;;;;;;1.90;1.80;;;14.60;99.90;;;;;;5052721;28;20939;-76
2022/10/13 08:41:33;;;;;;;0.50;0.40;;;14.60;99.90;;;;;;5052130;28;20445;-77
2022/10/13 08:44:05;;;;;;;1.00;0.83;;;14.60;99.90;;;;;;5052933;28;20477;-76
2022/10/13 08:46:39;;;;;;;2.40;1.80;;;14.80;99.90;;;;;;5052927;28;20808;-75
2022/10/13 08:49:06;;;;;;;1.43;1.27;;;14.70;99.90;;;;;;5052247;28;20420;-76
2022/10/13 08:51:35;;;;;;;0.50;0.40;;;14.80;99.90;;;;;;5052574;28;20441;-76
2022/10/13 08:54:04;;;;;;;3.13;2.83;;;14.80;99.90;;;;;;5051953;28;20468;-75
2022/10/13 08:56:34;;;;;;;6.40;1.87;;;14.90;99.90;;;;;;5051891;28;21088;-76
2022/10/13 08:59:04;;;;;;;0.60;0.50;;;14.90;99.90;;;;;;5053682;28;20903;-75
2022/10/13 09:01:33;;;;;;;0.70;0.70;;;14.80;99.90;;;;;;5052625;28;20532;-76
2022/10/13 09:04:16;;;;;;;3.27;2.60;;;14.80;99.90;;;;;;5051759;28;20970;-76
2022/10/13 09:06:48;;;;;;;2.27;2.13;;;14.90;99.90;;;;;;5051983;28;20496;-75
2022/10/13 09:09:16;;;;;;;0.73;0.73;;;15.00;99.90;;;;;;5051744;28;20437;-75
2022/10/13 09:11:45;;;;;;;0.80;0.80;;;15.30;99.90;;;;;;5051947;28;20437;-77
2022/10/13 09:14:21;;;;;;;3.80;0.83;;;15.90;99.90;;;;;;5051701;28;20441;-76
2022/10/13 09:16:48;;;;;;;4.60;1.13;;;16.50;99.90;;;;;;5052267;28;20457;-76
2022/10/13 09:19:22;;;;;;;0.70;0.70;;;16.70;99.90;;;;;;5051765;28;20463;-76
2022/10/13 09:21:51;;;;;;;1.93;1.83;;;16.80;99.90;;;;;;5054725;28;20429;-76
2022/10/13 09:24:20;;;;;;;0.50;0.30;;;16.80;99.90;;;;;;5052747;28;20468;-77
2022/10/13 09:26:50;;;;;;;0.57;0.43;;;16.70;99.90;;;;;;5052357;28;20457;-77
2022/10/13 09:29:19;;;;;;;0.67;0.63;;;16.70;99.90;;;;;;5051537;28;20440;-76
2022/10/13 09:31:47;;;;;;;2.40;0.97;;;16.90;99.90;;;;;;5051581;28;20780;-76
2022/10/13 09:34:25;;;;;;;0.50;0.40;;;16.90;99.90;;;;;;5051265;28;20437;-76
2022/10/13 09:37:01;;;;;;;3.80;1.70;;;17.10;99.90;;;;;;5051977;28;20449;-76
2022/10/13 09:39:29;;;;;;;3.80;1.90;;;17.30;99.90;;;;;;5051193;28;20437;-76
2022/10/13 09:42:19;;;;;;;0.90;0.80;;;17.40;99.90;;;;;;5050660;28;20447;-76
2022/10/13 09:44:47;;;;;;;2.27;2.10;;;17.30;99.90;;;;;;5051175;28;20457;-76
2022/10/13 09:47:20;;;;;;;2.40;1.70;;;17.30;99.90;;;;;;5050777;28;20465;-76
2022/10/13 09:50:00;;;;;;;2.33;2.23;;;17.30;99.90;;;;;;5051292;28;20425;-76
2022/10/13 09:52:29;;;;;;;1.43;1.33;;;17.40;99.90;;;;;;5051153;28;20444;-77
2022/10/13 09:54:59;;;;;;;1.17;1.00;;;17.80;99.90;;;;;;5051288;28;20436;-77
2022/10/13 09:57:35;;;;;;;0.50;0.30;;;17.90;99.90;;;;;;5051267;28;20476;-77
2022/10/13 10:00:11;;;;;;;2.10;0.80;;;17.70;99.90;;;;;;5051493;28;20460;-76
2022/10/13 10:02:44;;;;;;;5.70;3.40;;;17.80;99.90;;;;;;5051451;28;20449;-76
2022/10/13 10:05:20;;;;;;;1.30;1.20;;;17.70;99.90;;;;;;5050962;28;20481;-76
2022/10/13 10:07:49;;;;;;;0.60;0.40;;;17.40;99.90;;;;;;5051239;28;20548;-76
2022/10/13 10:10:29;;;;;;;2.60;0.70;;;17.40;99.90;;;;;;5051490;28;20443;-76
2022/10/13 10:12:56;;;;;;;1.27;1.23;;;17.50;99.90;;;;;;5051412;28;20851;-76
2022/10/13 10:15:29;;;;;;;1.20;0.60;;;17.40;99.90;;;;;;5051032;28;20439;-76
2022/10/13 10:18:01;;;;;;;0.50;0.30;;;17.40;99.90;;;;;;5051469;28;20453;-73
2022/10/13 10:20:46;;;;;;;0.50;0.40;;;17.50;99.90;;;;;;5051081;28;20527;-76
2022/10/13 10:23:22;;;;;;;0.50;0.37;;;17.50;99.90;;;;;;5050791;28;20512;-76
2022/10/13 10:25:53;;;;;;;1.60;1.50;;;17.40;99.90;;;;;;5051038;28;20433;-76
2022/10/13 10:28:47;;;;;;;0.50;0.30;;;17.10;99.90;;;;;;5051268;28;20907;-75
2022/10/13 10:31:22;;;;;;;1.63;1.13;;;17.00;99.90;;;;;;5051004;28;20436;-76
2022/10/13 10:33:58;;;;;;;2.20;0.73;;;16.90;99.90;;;;;;5050920;28;20454;-76
2022/10/13 10:36:32;;;;;;;2.47;1.30;;;16.80;99.90;;;;;;5051155;28;20467;-76
2022/10/13 10:39:07;;;;;;;0.50;0.40;;;17.00;99.90;;;;;;5051201;28;21033;-76
2022/10/13 10:41:43;;;;;;;1.00;1.00;;;17.20;99.90;;;;;;5051164;28;20459;-76
2022/10/13 10:44:12;;;;;;;0.60;0.50;;;17.40;99.90;;;;;;5050140;28;20567;-76
2022/10/13 10:46:44;;;;;;;0.50;0.30;;;17.80;99.90;;;;;;5050737;28;20469;-76
2022/10/13 10:49:18;;;;;;;2.00;1.53;;;18.40;99.90;;;;;;5051061;28;20479;-76
2022/10/13 10:51:46;;;;;;;1.33;1.23;;;18.80;99.90;;;;;;5051058;28;20441;-76
2022/10/13 10:54:25;;;;;;;1.10;0.80;;;18.70;99.90;;;;;;5050767;28;20433;-76
2022/10/13 10:56:58;;;;;;;0.60;0.60;;;18.80;99.90;;;;;;5050566;28;20507;-77
2022/10/13 10:59:40;;;;;;;12.80;4.90;;;19.10;99.90;;;;;;5050948;28;20421;-76
2022/10/13 11:02:30;;;;;;;2.13;1.10;;;19.60;99.90;;;;;;5051023;28;20439;-76
2022/10/13 11:04:58;;;;;;;1.87;1.27;;;19.80;99.90;;;;;;5054748;28;20561;-76
2022/10/13 11:08:02;;;;;;;0.50;0.33;;;19.70;99.90;;;;;;5053728;28;20457;-75
2022/10/13 11:10:30;;;;;;;0.50;0.30;;;19.70;99.90;;;;;;5055113;28;20838;-78
2022/10/13 11:13:21;;;;;;;1.13;0.93;;;19.60;99.90;;;;;;5055384;28;20444;-78
2022/10/13 11:15:48;;;;;;;1.17;0.80;;;19.70;99.90;;;;;;5055283;28;20425;-77
2022/10/13 11:18:51;;;;;;;3.13;0.67;;;19.40;99.90;;;;;;5054802;28;20543;-78
2022/10/13 11:21:18;;;;;;;5.07;3.50;;;19.10;99.90;;;;;;5055235;28;20440;-77
2022/10/13 11:23:47;;;;;;;0.50;0.30;;;18.80;99.90;;;;;;5055329;28;20428;-77
2022/10/13 11:26:30;;;;;;;3.53;1.53;;;18.70;99.90;;;;;;5054992;28;20819;-78
2022/10/13 11:28:58;;;;;;;1.33;1.23;;;18.70;99.90;;;;;;5066669;28;20468;-77
2022/10/13 11:31:47;;;;;;;5.23;3.10;;;18.50;99.90;;;;;;5056937;28;20519;-77
2022/10/13 11:34:29;;;;;;;1.40;1.30;;;18.20;99.90;;;;;;5054885;28;20432;-76
2022/10/13 11:36:59;;;;;;;1.07;0.97;;;18.10;99.90;;;;;;5055907;28;20488;-77
2022/10/13 11:39:51;;;;;;;2.60;2.50;;;17.80;99.90;;;;;;5055080;28;20476;-78
2022/10/13 11:42:53;;;;;;;1.63;1.23;;;17.70;99.90;;;;;;5055460;28;20417;-77
2022/10/13 11:45:30;;;;;;;0.60;0.60;;;17.70;99.90;;;;;;5054748;28;20969;-78
2022/10/13 11:48:32;;;;;;;2.30;2.10;;;17.50;99.90;;;;;;5054981;28;20543;-77
2022/10/13 11:51:12;;;;;;;1.20;1.03;;;17.30;99.90;;;;;;5055036;28;20428;-77
2022/10/13 11:53:48;;;;;;;1.13;0.77;;;17.20;99.90;;;;;;5054929;28;20790;-78
2022/10/13 11:56:22;;;;;;;0.93;0.73;;;17.30;99.90;;;;;;5054417;28;20468;-78
2022/10/13 11:58:50;;;;;;;7.90;0.80;;;17.30;99.90;;;;;;5054647;28;20527;-77
2022/10/13 12:01:18;;;;;;;1.90;1.80;;;17.20;99.90;;;;;;5054853;28;20441;-78
2022/10/13 12:03:46;;;;;;;0.63;0.60;;;17.10;99.90;;;;;;5053886;28;20446;-78
2022/10/13 12:06:33;;;;;;;2.50;1.00;;;17.00;99.90;;;;;;5054555;28;20548;-77
2022/10/13 12:09:06;;;;;;;1.60;1.60;;;17.10;99.90;;;;;;5054458;28;20449;-76
2022/10/13 12:11:36;;;;;;;16.43;1.93;;;17.00;99.90;;;;;;5054769;28;20447;-77
2022/10/13 12:14:19;;;;;;;2.00;1.70;;;16.90;99.90;;;;;;5053392;28;20425;-77
2022/10/13 12:16:53;;;;;;;1.13;1.03;;;16.80;99.90;;;;;;5053705;28;20465;-77
2022/10/13 12:19:22;;;;;;;0.60;0.50;;;16.60;99.90;;;;;;5053751;28;20460;-77
2022/10/13 12:21:50;;;;;;;5.10;3.17;;;16.50;99.90;;;;;;5054314;28;20523;-77
2022/10/13 12:24:16;;;;;;;2.93;1.63;;;16.50;99.90;;;;;;5053567;28;20546;-77
2022/10/13 12:26:44;;;;;;;3.57;1.70;;;16.30;99.90;;;;;;5054202;28;20453;-77
2022/10/13 12:29:14;;;;;;;3.73;0.90;;;16.20;99.90;;;;;;5055026;28;20476;-78
2022/10/13 12:31:42;;;;;;;0.93;0.93;;;16.00;99.90;;;;;;5053734;28;20429;-76
2022/10/13 12:34:20;;;;;;;1.00;1.00;;;15.90;99.90;;;;;;5054149;28;20447;-78
2022/10/13 12:36:54;;;;;;;2.27;0.73;;;15.80;99.90;;;;;;5054234;28;20897;-77
2022/10/13 12:39:23;;;;;;;2.37;1.43;;;15.70;99.90;;;;;;5053891;28;20436;-78
2022/10/13 12:41:51;;;;;;;2.87;2.33;;;15.60;99.90;;;;;;5053532;28;20445;-76
2022/10/13 12:44:22;;;;;;;9.00;4.13;;;15.50;99.90;;;;;;5055303;28;20551;-80
2022/10/13 12:46:51;;;;;;;0.50;0.40;;;15.30;99.90;;;;;;5055247;28;20472;-80
2022/10/13 12:49:22;;;;;;;0.50;0.40;;;15.20;99.90;;;;;;5054608;28;20963;-81
2022/10/13 12:51:52;;;;;;;0.50;0.40;;;15.20;99.90;;;;;;5054238;28;20433;-80
2022/10/13 12:54:25;;;;;;;1.37;0.97;;;15.20;99.90;;;;;;5055717;28;20471;-80
2022/10/13 12:56:55;;;;;;;0.50;0.30;;;15.10;99.90;;;;;;5055547;28;20484;-79
2022/10/13 12:59:24;;;;;;;0.93;0.93;;;15.10;99.90;;;;;;5055044;28;20448;-79
2022/10/13 13:01:59;;;;;;;0.50;0.30;;;15.20;99.90;;;;;;5054068;28;20935;-78